sensor_id;sensor_type;location;lat;lon;timestamp;P1;durP1;ratioP1;P2;durP2;ratioP2
73684;SDS011;61985;51.070;14.064;2023-07-29T00:01:40;2.83;;;1.48;;
73684;SDS011;61985;51.070;14.064;2023-07-29T00:04:06;2.63;;;1.42;;
73684;SDS011;61985;51.070;14.064;2023-07-29T00:06:33;2.08;;;1.42;;
73684;SDS011;61985;51.070;14.064;2023-07-29T00:08:58;1.65;;;1.40;;
73684;SDS011;61985;51.070;14.064;2023-07-29T00:11:23;1.98;;;1.65;;
73684;SDS011;61985;51.070;14.064;2023-07-29T00:13:49;2.70;;;1.42;;
73684;SDS011;61985;51.070;14.064;2023-07-29T00:16:15;4.75;;;2.15;;
73684;SDS011;61985;51.070;14.064;2023-07-29T00:18:42;2.63;;;1.77;;
73684;SDS011;61985;51.070;14.064;2023-07-29T00:21:08;2.25;;;1.48;;
73684;SDS011;61985;51.070;14.064;2023-07-29T00:23:33;2.88;;;1.67;;
73684;SDS011;61985;51.070;14.064;2023-07-29T00:25:59;2.35;;;1.60;;
73684;SDS011;61985;51.070;14.064;2023-07-29T00:28:24;1.63;;;1.52;;
73684;SDS011;61985;51.070;14.064;2023-07-29T00:30:50;2.97;;;1.35;;
73684;SDS011;61985;51.070;14.064;2023-07-29T00:33:15;2.50;;;1.50;;
73684;SDS011;61985;51.070;14.064;2023-07-29T00:35:40;3.72;;;1.70;;
73684;SDS011;61985;51.070;14.064;2023-07-29T00:38:06;2.15;;;1.75;;
73684;SDS011;61985;51.070;14.064;2023-07-29T00:40:31;1.95;;;1.50;;
73684;SDS011;61985;51.070;14.064;2023-07-29T00:43:00;2.72;;;1.80;;
73684;SDS011;61985;51.070;14.064;2023-07-29T00:45:26;1.75;;;1.55;;
73684;SDS011;61985;51.070;14.064;2023-07-29T00:47:53;3.25;;;1.50;;
73684;SDS011;61985;51.070;14.064;2023-07-29T00:50:19;1.65;;;1.40;;
73684;SDS011;61985;51.070;14.064;2023-07-29T00:52:45;1.90;;;1.45;;
73684;SDS011;61985;51.070;14.064;2023-07-29T00:55:10;2.75;;;1.50;;
73684;SDS011;61985;51.070;14.064;2023-07-29T00:57:36;3.03;;;1.60;;
73684;SDS011;61985;51.070;14.064;2023-07-29T01:00:02;3.50;;;1.50;;
73684;SDS011;61985;51.070;14.064;2023-07-29T01:02:29;2.45;;;1.40;;
73684;SDS011;61985;51.070;14.064;2023-07-29T01:04:58;1.70;;;1.42;;
73684;SDS011;61985;51.070;14.064;2023-07-29T01:11:04;2.80;;;1.67;;
73684;SDS011;61985;51.070;14.064;2023-07-29T01:13:17;2.20;;;1.63;;
73684;SDS011;61985;51.070;14.064;2023-07-29T01:18:48;4.43;;;1.90;;
73684;SDS011;61985;51.070;14.064;2023-07-29T01:21:17;2.95;;;1.48;;
73684;SDS011;61985;51.070;14.064;2023-07-29T01:23:44;3.53;;;1.65;;
73684;SDS011;61985;51.070;14.064;2023-07-29T01:26:09;3.90;;;1.58;;
73684;SDS011;61985;51.070;14.064;2023-07-29T01:28:35;4.28;;;1.45;;
73684;SDS011;61985;51.070;14.064;2023-07-29T01:33:39;1.92;;;1.63;;
73684;SDS011;61985;51.070;14.064;2023-07-29T01:36:15;2.40;;;1.70;;
73684;SDS011;61985;51.070;14.064;2023-07-29T01:38:47;4.03;;;1.70;;
73684;SDS011;61985;51.070;14.064;2023-07-29T01:41:13;5.13;;;1.58;;
73684;SDS011;61985;51.070;14.064;2023-07-29T01:43:39;2.95;;;1.55;;
73684;SDS011;61985;51.070;14.064;2023-07-29T01:46:12;2.30;;;1.50;;
73684;SDS011;61985;51.070;14.064;2023-07-29T01:48:38;4.78;;;1.90;;
73684;SDS011;61985;51.070;14.064;2023-07-29T01:51:03;4.25;;;1.65;;
73684;SDS011;61985;51.070;14.064;2023-07-29T01:53:30;2.30;;;1.60;;
73684;SDS011;61985;51.070;14.064;2023-07-29T01:55:55;3.97;;;1.60;;
73684;SDS011;61985;51.070;14.064;2023-07-29T01:58:22;3.00;;;1.70;;
73684;SDS011;61985;51.070;14.064;2023-07-29T02:00:47;2.42;;;1.85;;
73684;SDS011;61985;51.070;14.064;2023-07-29T02:03:13;4.50;;;1.98;;
73684;SDS011;61985;51.070;14.064;2023-07-29T02:05:39;2.10;;;1.75;;
73684;SDS011;61985;51.070;14.064;2023-07-29T02:08:04;4.18;;;2.10;;
73684;SDS011;61985;51.070;14.064;2023-07-29T02:10:29;2.88;;;2.35;;
73684;SDS011;61985;51.070;14.064;2023-07-29T02:12:55;4.38;;;1.70;;
73684;SDS011;61985;51.070;14.064;2023-07-29T02:15:20;2.45;;;1.80;;
73684;SDS011;61985;51.070;14.064;2023-07-29T02:17:46;4.28;;;1.63;;
73684;SDS011;61985;51.070;14.064;2023-07-29T02:20:11;3.60;;;1.50;;
73684;SDS011;61985;51.070;14.064;2023-07-29T02:22:36;1.92;;;1.60;;
73684;SDS011;61985;51.070;14.064;2023-07-29T02:25:02;3.10;;;1.85;;
73684;SDS011;61985;51.070;14.064;2023-07-29T02:27:28;2.28;;;1.60;;
73684;SDS011;61985;51.070;14.064;2023-07-29T02:29:53;1.80;;;1.55;;
73684;SDS011;61985;51.070;14.064;2023-07-29T02:32:19;4.35;;;1.75;;
73684;SDS011;61985;51.070;14.064;2023-07-29T02:34:45;3.75;;;1.77;;
73684;SDS011;61985;51.070;14.064;2023-07-29T02:37:11;3.40;;;1.90;;
73684;SDS011;61985;51.070;14.064;2023-07-29T02:39:36;4.18;;;1.52;;
73684;SDS011;61985;51.070;14.064;2023-07-29T02:42:02;3.70;;;1.40;;
73684;SDS011;61985;51.070;14.064;2023-07-29T02:44:28;2.17;;;1.80;;
73684;SDS011;61985;51.070;14.064;2023-07-29T02:46:53;4.50;;;1.50;;
73684;SDS011;61985;51.070;14.064;2023-07-29T02:49:20;3.70;;;2.05;;
73684;SDS011;61985;51.070;14.064;2023-07-29T02:51:46;2.20;;;1.58;;
73684;SDS011;61985;51.070;14.064;2023-07-29T02:54:12;2.83;;;1.80;;
73684;SDS011;61985;51.070;14.064;2023-07-29T02:56:37;1.85;;;1.65;;
73684;SDS011;61985;51.070;14.064;2023-07-29T02:59:03;3.08;;;1.60;;
73684;SDS011;61985;51.070;14.064;2023-07-29T03:01:28;2.85;;;1.77;;
73684;SDS011;61985;51.070;14.064;2023-07-29T03:03:54;2.78;;;1.60;;
73684;SDS011;61985;51.070;14.064;2023-07-29T03:06:19;3.22;;;1.55;;
73684;SDS011;61985;51.070;14.064;2023-07-29T03:08:44;3.28;;;2.03;;
73684;SDS011;61985;51.070;14.064;2023-07-29T03:11:11;3.22;;;1.73;;
73684;SDS011;61985;51.070;14.064;2023-07-29T03:13:39;2.97;;;2.20;;
73684;SDS011;61985;51.070;14.064;2023-07-29T03:16:05;2.85;;;1.73;;
73684;SDS011;61985;51.070;14.064;2023-07-29T03:18:31;5.32;;;3.08;;
73684;SDS011;61985;51.070;14.064;2023-07-29T03:20:56;2.95;;;1.60;;
73684;SDS011;61985;51.070;14.064;2023-07-29T03:23:21;3.30;;;1.58;;
73684;SDS011;61985;51.070;14.064;2023-07-29T03:25:50;2.70;;;1.60;;
73684;SDS011;61985;51.070;14.064;2023-07-29T03:28:21;1.85;;;1.63;;
73684;SDS011;61985;51.070;14.064;2023-07-29T03:30:50;2.60;;;1.52;;
73684;SDS011;61985;51.070;14.064;2023-07-29T03:33:15;3.88;;;1.80;;
73684;SDS011;61985;51.070;14.064;2023-07-29T03:35:41;4.15;;;1.92;;
73684;SDS011;61985;51.070;14.064;2023-07-29T03:38:09;2.08;;;1.65;;
73684;SDS011;61985;51.070;14.064;2023-07-29T03:40:35;2.17;;;1.77;;
73684;SDS011;61985;51.070;14.064;2023-07-29T03:43:00;2.65;;;1.80;;
73684;SDS011;61985;51.070;14.064;2023-07-29T03:45:25;4.45;;;1.77;;
73684;SDS011;61985;51.070;14.064;2023-07-29T03:47:51;3.72;;;1.73;;
73684;SDS011;61985;51.070;14.064;2023-07-29T03:50:16;4.38;;;1.95;;
73684;SDS011;61985;51.070;14.064;2023-07-29T03:52:41;3.25;;;2.00;;
73684;SDS011;61985;51.070;14.064;2023-07-29T03:55:07;4.30;;;1.90;;
73684;SDS011;61985;51.070;14.064;2023-07-29T03:57:33;2.58;;;2.00;;
73684;SDS011;61985;51.070;14.064;2023-07-29T03:59:58;4.57;;;2.33;;
73684;SDS011;61985;51.070;14.064;2023-07-29T04:02:24;2.55;;;1.85;;
73684;SDS011;61985;51.070;14.064;2023-07-29T04:04:49;4.15;;;2.03;;
73684;SDS011;61985;51.070;14.064;2023-07-29T04:07:14;3.00;;;1.83;;
73684;SDS011;61985;51.070;14.064;2023-07-29T04:09:40;4.28;;;2.45;;
73684;SDS011;61985;51.070;14.064;2023-07-29T04:12:05;4.03;;;1.80;;
73684;SDS011;61985;51.070;14.064;2023-07-29T04:14:31;5.18;;;2.05;;
73684;SDS011;61985;51.070;14.064;2023-07-29T04:16:57;4.55;;;1.85;;
73684;SDS011;61985;51.070;14.064;2023-07-29T04:19:22;5.43;;;2.20;;
73684;SDS011;61985;51.070;14.064;2023-07-29T04:21:48;3.17;;;1.80;;
73684;SDS011;61985;51.070;14.064;2023-07-29T04:24:15;4.70;;;2.05;;
73684;SDS011;61985;51.070;14.064;2023-07-29T04:26:41;2.70;;;2.00;;
73684;SDS011;61985;51.070;14.064;2023-07-29T04:29:06;3.47;;;2.05;;
73684;SDS011;61985;51.070;14.064;2023-07-29T04:31:32;12.25;;;2.40;;
73684;SDS011;61985;51.070;14.064;2023-07-29T04:33:57;3.22;;;1.83;;
73684;SDS011;61985;51.070;14.064;2023-07-29T04:36:22;3.63;;;2.00;;
73684;SDS011;61985;51.070;14.064;2023-07-29T04:38:48;4.13;;;2.00;;
73684;SDS011;61985;51.070;14.064;2023-07-29T04:41:13;2.33;;;1.60;;
73684;SDS011;61985;51.070;14.064;2023-07-29T04:43:39;2.45;;;1.70;;
73684;SDS011;61985;51.070;14.064;2023-07-29T04:46:07;2.50;;;1.77;;
73684;SDS011;61985;51.070;14.064;2023-07-29T04:48:33;3.90;;;1.55;;
73684;SDS011;61985;51.070;14.064;2023-07-29T04:50:59;2.28;;;1.50;;
73684;SDS011;61985;51.070;14.064;2023-07-29T04:53:24;4.05;;;1.85;;
73684;SDS011;61985;51.070;14.064;2023-07-29T04:55:50;1.98;;;1.35;;
73684;SDS011;61985;51.070;14.064;2023-07-29T04:58:15;1.40;;;1.30;;
73684;SDS011;61985;51.070;14.064;2023-07-29T05:00:41;2.60;;;1.67;;
73684;SDS011;61985;51.070;14.064;2023-07-29T05:03:06;2.83;;;1.35;;
73684;SDS011;61985;51.070;14.064;2023-07-29T05:05:32;1.77;;;1.63;;
73684;SDS011;61985;51.070;14.064;2023-07-29T05:07:57;1.50;;;1.40;;
73684;SDS011;61985;51.070;14.064;2023-07-29T05:10:23;3.17;;;1.70;;
73684;SDS011;61985;51.070;14.064;2023-07-29T05:12:48;1.50;;;1.40;;
73684;SDS011;61985;51.070;14.064;2023-07-29T05:15:20;2.28;;;1.42;;
73684;SDS011;61985;51.070;14.064;2023-07-29T06:32:42;2.15;;;1.27;;
73684;SDS011;61985;51.070;14.064;2023-07-29T06:35:08;2.10;;;1.20;;
73684;SDS011;61985;51.070;14.064;2023-07-29T06:37:33;1.42;;;1.13;;
73684;SDS011;61985;51.070;14.064;2023-07-29T06:39:59;1.48;;;1.10;;
73684;SDS011;61985;51.070;14.064;2023-07-29T06:42:51;1.70;;;1.08;;
73684;SDS011;61985;51.070;14.064;2023-07-29T06:45:16;3.78;;;1.10;;
73684;SDS011;61985;51.070;14.064;2023-07-29T06:47:42;3.70;;;1.13;;
73684;SDS011;61985;51.070;14.064;2023-07-29T06:50:07;1.40;;;1.17;;
73684;SDS011;61985;51.070;14.064;2023-07-29T06:52:33;2.55;;;1.20;;
73684;SDS011;61985;51.070;14.064;2023-07-29T06:54:58;2.38;;;1.20;;
73684;SDS011;61985;51.070;14.064;2023-07-29T06:57:24;2.08;;;1.30;;
73684;SDS011;61985;51.070;14.064;2023-07-29T06:59:49;2.55;;;1.23;;
73684;SDS011;61985;51.070;14.064;2023-07-29T07:02:15;1.05;;;1.00;;
73684;SDS011;61985;51.070;14.064;2023-07-29T07:04:40;1.58;;;1.20;;
73684;SDS011;61985;51.070;14.064;2023-07-29T07:07:06;1.20;;;1.10;;
73684;SDS011;61985;51.070;14.064;2023-07-29T07:09:31;1.48;;;1.25;;
73684;SDS011;61985;51.070;14.064;2023-07-29T07:11:56;2.50;;;1.67;;
73684;SDS011;61985;51.070;14.064;2023-07-29T07:14:22;2.00;;;1.27;;
73684;SDS011;61985;51.070;14.064;2023-07-29T07:16:47;1.40;;;1.20;;
73684;SDS011;61985;51.070;14.064;2023-07-29T07:19:13;2.55;;;1.52;;
73684;SDS011;61985;51.070;14.064;2023-07-29T07:21:38;1.20;;;1.10;;
73684;SDS011;61985;51.070;14.064;2023-07-29T07:24:06;3.05;;;1.40;;
73684;SDS011;61985;51.070;14.064;2023-07-29T07:26:35;2.22;;;1.17;;
73684;SDS011;61985;51.070;14.064;2023-07-29T07:29:00;1.42;;;1.25;;
73684;SDS011;61985;51.070;14.064;2023-07-29T07:31:26;1.88;;;1.20;;
73684;SDS011;61985;51.070;14.064;2023-07-29T07:33:51;1.38;;;1.27;;
73684;SDS011;61985;51.070;14.064;2023-07-29T07:36:16;1.95;;;1.30;;
73684;SDS011;61985;51.070;14.064;2023-07-29T07:38:42;2.33;;;1.40;;
73684;SDS011;61985;51.070;14.064;2023-07-29T07:41:07;1.30;;;1.20;;
73684;SDS011;61985;51.070;14.064;2023-07-29T07:43:33;4.80;;;1.27;;
73684;SDS011;61985;51.070;14.064;2023-07-29T07:45:59;1.98;;;1.30;;
73684;SDS011;61985;51.070;14.064;2023-07-29T07:48:26;2.20;;;1.38;;
73684;SDS011;61985;51.070;14.064;2023-07-29T07:50:52;1.67;;;1.40;;
73684;SDS011;61985;51.070;14.064;2023-07-29T07:53:17;4.63;;;1.30;;
73684;SDS011;61985;51.070;14.064;2023-07-29T07:55:44;2.53;;;1.38;;
73684;SDS011;61985;51.070;14.064;2023-07-29T07:58:10;2.60;;;1.20;;
73684;SDS011;61985;51.070;14.064;2023-07-29T08:00:35;4.38;;;1.27;;
73684;SDS011;61985;51.070;14.064;2023-07-29T08:03:01;1.45;;;1.10;;
73684;SDS011;61985;51.070;14.064;2023-07-29T08:05:26;1.40;;;1.30;;
73684;SDS011;61985;51.070;14.064;2023-07-29T08:07:51;2.05;;;1.30;;
73684;SDS011;61985;51.070;14.064;2023-07-29T08:10:17;3.72;;;1.42;;
73684;SDS011;61985;51.070;14.064;2023-07-29T08:12:42;1.55;;;1.20;;
73684;SDS011;61985;51.070;14.064;2023-07-29T08:15:08;1.20;;;1.10;;
73684;SDS011;61985;51.070;14.064;2023-07-29T08:17:33;2.03;;;1.10;;
73684;SDS011;61985;51.070;14.064;2023-07-29T08:20:01;4.43;;;1.20;;
73684;SDS011;61985;51.070;14.064;2023-07-29T08:22:27;2.63;;;1.58;;
73684;SDS011;61985;51.070;14.064;2023-07-29T08:24:52;1.42;;;1.20;;
73684;SDS011;61985;51.070;14.064;2023-07-29T08:27:20;1.45;;;1.10;;
73684;SDS011;61985;51.070;14.064;2023-07-29T08:29:45;1.40;;;1.30;;
73684;SDS011;61985;51.070;14.064;2023-07-29T08:32:11;1.42;;;1.30;;
73684;SDS011;61985;51.070;14.064;2023-07-29T08:34:39;4.72;;;1.40;;
73684;SDS011;61985;51.070;14.064;2023-07-29T08:37:05;1.95;;;1.40;;
73684;SDS011;61985;51.070;14.064;2023-07-29T08:39:36;1.40;;;1.20;;
73684;SDS011;61985;51.070;14.064;2023-07-29T08:42:22;2.50;;;1.50;;
73684;SDS011;61985;51.070;14.064;2023-07-29T08:44:49;1.30;;;1.20;;
73684;SDS011;61985;51.070;14.064;2023-07-29T08:47:18;1.50;;;1.23;;
73684;SDS011;61985;51.070;14.064;2023-07-29T13:52:19;1.00;;;0.90;;
73684;SDS011;61985;51.070;14.064;2023-07-29T13:54:56;1.00;;;0.90;;
73684;SDS011;61985;51.070;14.064;2023-07-29T13:57:52;1.75;;;0.88;;
73684;SDS011;61985;51.070;14.064;2023-07-29T14:00:37;1.55;;;1.00;;
73684;SDS011;61985;51.070;14.064;2023-07-29T14:03:26;1.50;;;1.00;;
73684;SDS011;61985;51.070;14.064;2023-07-29T14:06:18;1.33;;;0.90;;
73684;SDS011;61985;51.070;14.064;2023-07-29T14:08:49;1.52;;;1.10;;
73684;SDS011;61985;51.070;14.064;2023-07-29T14:11:20;1.10;;;1.00;;
73684;SDS011;61985;51.070;14.064;2023-07-29T14:13:58;1.05;;;0.95;;
73684;SDS011;61985;51.070;14.064;2023-07-29T14:16:48;0.70;;;0.70;;
73684;SDS011;61985;51.070;14.064;2023-07-29T14:19:23;1.73;;;1.00;;
73684;SDS011;61985;51.070;14.064;2023-07-29T14:21:59;2.83;;;0.98;;
73684;SDS011;61985;51.070;14.064;2023-07-29T16:42:06;1.23;;;1.10;;
73684;SDS011;61985;51.070;14.064;2023-07-29T16:44:32;2.88;;;1.30;;
73684;SDS011;61985;51.070;14.064;2023-07-29T16:46:57;2.00;;;1.05;;
73684;SDS011;61985;51.070;14.064;2023-07-29T16:49:23;2.65;;;1.58;;
73684;SDS011;61985;51.070;14.064;2023-07-29T16:51:48;1.52;;;1.13;;
73684;SDS011;61985;51.070;14.064;2023-07-29T16:54:18;2.10;;;1.15;;
73684;SDS011;61985;51.070;14.064;2023-07-29T16:56:44;2.75;;;1.15;;
73684;SDS011;61985;51.070;14.064;2023-07-29T16:59:11;1.98;;;0.80;;
73684;SDS011;61985;51.070;14.064;2023-07-29T17:01:36;3.33;;;1.00;;
73684;SDS011;61985;51.070;14.064;2023-07-29T17:04:22;2.40;;;1.10;;
73684;SDS011;61985;51.070;14.064;2023-07-29T17:06:54;6.72;;;1.30;;
73684;SDS011;61985;51.070;14.064;2023-07-29T17:09:25;9.00;;;1.15;;
